Time;durP1;ratioP1;P1;durP2;ratioP2;P2;SDS_P1;SDS_P2;PMS_P1;PMS_P2;Temp;Humidity;BMP_temperature;BMP_pressure;BME280_temperature;BME280_humidity;BME280_pressure;Samples;Min_cycle;Max_cycle;Signal;HPM_P1;HPM_P2
2023/08/24 00:00:16;;;;;;;4.72;4.30;;;;;;;23.51;54.31;97388.75;4861816;28;20223;-78
2023/08/24 00:02:42;;;;;;;5.43;4.93;;;;;;;23.59;54.88;97392.47;4885387;28;20579;-78
2023/08/24 00:05:07;;;;;;;5.35;4.95;;;;;;;23.65;54.66;97407.13;4874737;28;20246;-79
2023/08/24 00:07:32;;;;;;;4.97;4.47;;;;;;;23.72;54.24;97407.38;4886880;28;20274;-78
2023/08/24 00:09:58;;;;;;;5.05;4.65;;;;;;;23.73;54.48;97403.59;4859632;28;20222;-78
2023/08/24 00:12:23;;;;;;;5.68;5.18;;;;;;;23.64;56.56;97411.63;4877834;28;20249;-78
2023/08/24 00:14:49;;;;;;;6.18;4.85;;;;;;;23.63;55.91;97404.78;4881842;28;20294;-79
2023/08/24 00:17:14;;;;;;;5.85;5.28;;;;;;;23.66;56.50;97406.00;4883802;28;20210;-78
2023/08/24 00:19:40;;;;;;;6.07;5.53;;;;;;;23.63;56.74;97401.31;4874792;28;20366;-78
2023/08/24 00:22:05;;;;;;;5.78;5.22;;;;;;;23.51;56.59;97392.19;4865619;28;20139;-78
2023/08/24 00:24:31;;;;;;;5.45;4.95;;;;;;;23.52;56.55;97399.06;4865336;28;20183;-78
2023/08/24 00:26:56;;;;;;;5.40;5.00;;;;;;;23.52;56.19;97390.31;4887269;28;20135;-78
2023/08/24 00:29:21;;;;;;;5.70;5.20;;;;;;;23.52;56.36;97393.75;4853157;28;20715;-78
2023/08/24 00:31:47;;;;;;;5.30;4.80;;;;;;;23.51;55.93;97380.78;4872141;28;20262;-79
2023/08/24 00:34:12;;;;;;;5.85;4.90;;;;;;;23.52;55.50;97379.69;4885685;28;20625;-79
2023/08/24 00:36:38;;;;;;;5.13;4.72;;;;;;;23.49;55.36;97378.47;4869439;28;20203;-79
2023/08/24 00:39:03;;;;;;;5.20;4.72;;;;;;;23.50;55.37;97374.69;4855900;28;20129;-81
2023/08/24 00:41:29;;;;;;;5.05;4.70;;;;;;;23.51;55.13;97370.94;4873075;28;20172;-81
2023/08/24 00:43:54;;;;;;;4.57;4.18;;;;;;;23.53;54.45;97374.03;4888560;28;20289;-81
2023/08/24 00:46:19;;;;;;;5.22;4.72;;;;;;;23.49;55.35;97372.34;4905871;28;20292;-81
2023/08/24 00:48:45;;;;;;;5.32;4.85;;;;;;;23.48;55.06;97381.44;4889265;28;20661;-81
2023/08/24 00:51:11;;;;;;;5.93;4.40;;;;;;;23.49;54.64;97375.00;4872436;28;20198;-81
2023/08/24 00:53:36;;;;;;;4.80;4.43;;;;;;;23.51;55.15;97378.13;4886930;28;20305;-81
2023/08/24 00:56:03;;;;;;;4.70;4.28;;;;;;;23.52;54.46;97377.78;4873775;28;20649;-81
2023/08/24 00:58:28;;;;;;;4.63;4.32;;;;;;;23.48;54.34;97370.81;4863029;28;20335;-81
2023/08/24 01:00:54;;;;;;;4.78;4.30;;;;;;;23.50;54.50;97379.22;4854118;28;20117;-79
2023/08/24 01:03:22;;;;;;;4.72;4.32;;;;;;;23.51;53.82;97380.78;4870196;28;20215;-78
2023/08/24 01:05:48;;;;;;;4.32;3.92;;;;;;;23.45;53.85;97374.09;4870956;28;20233;-79
2023/08/24 01:08:13;;;;;;;4.05;3.70;;;;;;;23.44;54.06;97385.81;4868333;28;20566;-79
2023/08/24 01:10:45;;;;;;;4.40;4.00;;;;;;;23.48;53.36;97389.41;4884950;28;20702;-79
2023/08/24 01:13:12;;;;;;;4.75;4.35;;;;;;;23.47;53.74;97393.16;4891110;28;20250;-79
2023/08/24 01:16:05;;;;;;;5.05;4.75;;;;;;;23.51;53.84;97402.03;4864092;28;20251;-79
2023/08/24 01:18:31;;;;;;;4.50;4.20;;;;;;;23.43;53.02;97402.88;4865650;28;20700;-79
2023/08/24 01:20:57;;;;;;;4.47;4.10;;;;;;;23.40;54.30;97387.59;4846204;28;20372;-79
2023/08/24 01:23:44;;;;;;;4.93;4.43;;;;;;;23.53;53.86;97391.88;4887609;28;20657;-79
2023/08/24 01:26:20;;;;;;;4.88;4.45;;;;;;;23.48;54.07;97397.38;4857657;28;20229;-79
2023/08/24 01:28:46;;;;;;;5.05;4.60;;;;;;;23.33;54.65;97401.38;4886855;28;20261;-79
2023/08/24 01:31:18;;;;;;;7.20;5.40;;;;;;;23.30;55.44;97402.78;4859155;28;20641;-79
2023/08/24 01:33:45;;;;;;;5.15;4.75;;;;;;;23.28;55.15;97401.56;4865287;28;20161;-79
2023/08/24 01:36:12;;;;;;;5.35;4.85;;;;;;;23.28;55.40;97399.69;4857547;28;20657;-79
2023/08/24 01:38:37;;;;;;;5.18;4.80;;;;;;;23.27;54.82;97408.78;4867360;28;20192;-78
2023/08/24 01:41:11;;;;;;;4.68;4.20;;;;;;;23.31;54.25;97409.66;4874882;28;20223;-79
2023/08/24 01:43:39;;;;;;;4.60;4.20;;;;;;;23.23;54.73;97396.44;4884167;28;20200;-79
2023/08/24 01:46:05;;;;;;;4.57;4.18;;;;;;;23.19;54.21;97396.31;4889844;28;20601;-79
2023/08/24 01:48:31;;;;;;;4.95;4.55;;;;;;;23.17;53.76;97391.31;4873118;28;20359;-79
2023/08/24 01:50:57;;;;;;;4.07;3.78;;;;;;;23.16;53.43;97388.97;4873521;28;20291;-79
2023/08/24 01:53:23;;;;;;;4.38;4.05;;;;;;;23.12;53.57;97382.75;4858401;28;20483;-79
2023/08/24 01:55:48;;;;;;;4.28;3.97;;;;;;;23.07;53.82;97382.94;4860405;28;20214;-79
2023/08/24 01:58:14;;;;;;;4.75;4.28;;;;;;;23.00;53.59;97378.88;4873030;28;20191;-79
2023/08/24 02:00:39;;;;;;;4.47;4.18;;;;;;;22.99;54.47;97385.28;4881026;28;20168;-78
2023/08/24 02:03:05;;;;;;;4.38;3.97;;;;;;;22.97;54.04;97376.84;4881258;28;20287;-79
2023/08/24 02:05:30;;;;;;;4.53;4.13;;;;;;;22.94;54.51;97366.84;4871185;28;20348;-79
2023/08/24 02:07:57;;;;;;;4.70;4.25;;;;;;;22.96;54.04;97366.53;4857743;28;20186;-79
2023/08/24 02:10:23;;;;;;;4.50;4.20;;;;;;;22.95;54.28;97365.00;4889024;28;20173;-79
2023/08/24 02:12:48;;;;;;;4.75;4.15;;;;;;;22.97;54.34;97352.94;4889766;28;20188;-79
2023/08/24 02:15:13;;;;;;;4.72;4.32;;;;;;;22.98;54.43;97343.91;4874116;28;20621;-79
2023/08/24 02:17:39;;;;;;;4.60;4.30;;;;;;;22.95;54.50;97336.56;4865733;28;20649;-79
2023/08/24 02:20:06;;;;;;;5.00;4.60;;;;;;;22.99;53.91;97339.34;4866383;28;20719;-79
2023/08/24 02:22:31;;;;;;;5.03;4.32;;;;;;;22.96;54.15;97335.47;4866269;28;20709;-79
2023/08/24 02:24:56;;;;;;;5.00;3.80;;;;;;;22.96;53.66;97316.88;4889937;28;20283;-79
2023/08/24 02:27:22;;;;;;;4.40;4.03;;;;;;;22.99;53.03;97312.81;4860547;28;20243;-79
2023/08/24 02:29:47;;;;;;;4.43;4.07;;;;;;;23.00;51.93;97304.50;4885198;28;20207;-79
2023/08/24 02:32:12;;;;;;;4.47;4.07;;;;;;;23.05;52.22;97297.44;4886509;28;20588;-79
2023/08/24 02:34:38;;;;;;;4.00;3.70;;;;;;;23.07;53.11;97301.38;4855294;28;20345;-79
2023/08/24 02:37:04;;;;;;;4.47;3.88;;;;;;;23.03;53.87;97297.00;4888652;28;20612;-79
2023/08/24 02:39:29;;;;;;;5.03;4.57;;;;;;;23.00;55.40;97301.09;4863977;28;20497;-78
2023/08/24 02:41:55;;;;;;;5.32;4.75;;;;;;;22.96;55.90;97292.19;4864798;28;20187;-78
2023/08/24 02:44:23;;;;;;;5.40;4.93;;;;;;;22.95;55.97;97280.81;4884001;28;21593;-79
2023/08/24 02:46:48;;;;;;;5.40;5.00;;;;;;;22.95;56.89;97278.16;4868882;28;20697;-79
2023/08/24 02:49:14;;;;;;;4.88;4.53;;;;;;;22.90;56.70;97251.03;4871017;28;20195;-79
2023/08/24 02:51:39;;;;;;;5.10;4.70;;;;;;;22.90;56.32;97241.16;4867072;28;20195;-79
2023/08/24 02:54:05;;;;;;;4.85;4.45;;;;;;;22.87;56.63;97220.56;4867527;28;20241;-79
2023/08/24 02:56:30;;;;;;;4.82;4.40;;;;;;;22.94;55.09;97223.47;4885075;28;20212;-79
2023/08/24 02:58:56;;;;;;;4.93;4.40;;;;;;;22.94;53.97;97215.50;4866899;28;20176;-79
2023/08/24 03:01:21;;;;;;;5.13;4.63;;;;;;;23.05;53.53;97207.94;4884646;28;20205;-79
2023/08/24 03:03:46;;;;;;;4.72;4.32;;;;;;;23.27;52.37;97200.75;4886154;28;20820;-79
2023/08/24 03:06:12;;;;;;;4.78;4.35;;;;;;;23.35;52.17;97203.31;4851147;28;20639;-80
2023/08/24 03:08:37;;;;;;;4.65;3.95;;;;;;;23.56;51.43;97199.84;4885682;28;20204;-80
2023/08/24 03:11:03;;;;;;;4.65;4.25;;;;;;;23.80;51.03;97198.34;4877587;28;20248;-79
2023/08/24 03:13:30;;;;;;;4.85;3.92;;;;;;;24.01;49.96;97203.59;4858436;28;20289;-79
2023/08/24 03:15:55;;;;;;;5.07;4.57;;;;;;;24.08;50.18;97201.97;4875716;28;20590;-79
2023/08/24 03:18:21;;;;;;;4.53;4.15;;;;;;;24.27;49.04;97208.63;4858433;28;20203;-80
2023/08/24 03:20:47;;;;;;;4.00;3.58;;;;;;;24.45;48.52;97227.78;4873743;28;20626;-80
2023/08/24 03:23:13;;;;;;;5.05;4.28;;;;;;;24.57;48.72;97227.78;4854425;28;20309;-81
2023/08/24 03:25:40;;;;;;;4.70;4.30;;;;;;;24.66;48.94;97227.69;4876720;28;20744;-80
2023/08/24 03:28:07;;;;;;;4.72;4.43;;;;;;;24.57;48.57;97224.38;4884332;28;20289;-81
2023/08/24 03:30:37;;;;;;;4.97;4.53;;;;;;;24.62;49.70;97224.91;4867624;28;20345;-80
2023/08/24 03:33:04;;;;;;;4.22;3.85;;;;;;;24.63;48.48;97223.03;4853914;28;20247;-82
2023/08/24 03:35:31;;;;;;;4.10;3.72;;;;;;;24.74;48.84;97226.00;4878312;28;20277;-80
2023/08/24 03:37:56;;;;;;;4.32;4.03;;;;;;;24.72;48.38;97218.34;4856023;28;20654;-80
2023/08/24 03:40:21;;;;;;;4.35;4.03;;;;;;;24.74;48.66;97213.47;4874560;28;20165;-82
2023/08/24 03:42:47;;;;;;;4.22;3.92;;;;;;;24.71;48.33;97208.81;4864735;28;20291;-80
2023/08/24 03:45:12;;;;;;;4.72;4.32;;;;;;;24.78;47.43;97209.03;4881399;28;20611;-80
2023/08/24 03:47:38;;;;;;;4.88;4.45;;;;;;;24.78;48.40;97201.03;4842718;28;20250;-80
2023/08/24 03:50:03;;;;;;;4.57;4.18;;;;;;;24.81;48.18;97202.25;4885311;28;20241;-79
2023/08/24 03:52:29;;;;;;;4.57;4.13;;;;;;;24.79;48.06;97201.81;4885698;28;20188;-80
2023/08/24 03:54:54;;;;;;;4.20;3.90;;;;;;;24.86;47.86;97207.34;4877366;28;20239;-80
2023/08/24 03:57:20;;;;;;;4.50;4.10;;;;;;;24.90;47.17;97212.75;4876135;28;20583;-80
2023/08/24 03:59:45;;;;;;;4.30;3.90;;;;;;;24.89;47.93;97205.91;4884686;28;20199;-80
2023/08/24 04:02:11;;;;;;;4.50;4.20;;;;;;;24.86;48.21;97213.44;4859071;28;20168;-81
2023/08/24 04:04:36;;;;;;;4.50;4.20;;;;;;;24.80;48.19;97204.13;4860068;28;20173;-80
2023/08/24 04:07:02;;;;;;;4.50;4.20;;;;;;;24.77;48.68;97209.34;4884547;28;20281;-80
2023/08/24 04:09:28;;;;;;;5.22;4.43;;;;;;;24.70;48.05;97209.16;4870141;28;20350;-80
2023/08/24 04:11:54;;;;;;;4.72;4.32;;;;;;;24.54;48.98;97195.72;4852344;28;20780;-80
2023/08/24 04:14:19;;;;;;;4.72;4.35;;;;;;;24.49;48.93;97205.50;4868904;28;20320;-80
2023/08/24 04:16:45;;;;;;;4.50;4.10;;;;;;;24.42;49.22;97199.16;4890948;28;20210;-80
2023/08/24 04:19:10;;;;;;;4.72;4.30;;;;;;;24.39;49.54;97205.19;4864837;28;20587;-80
2023/08/24 04:21:36;;;;;;;4.70;4.30;;;;;;;24.34;49.55;97200.84;4860501;28;20251;-80
2023/08/24 04:24:01;;;;;;;4.35;3.92;;;;;;;24.36;49.32;97211.16;4869969;28;20640;-80
2023/08/24 04:26:26;;;;;;;5.18;4.78;;;;;;;24.35;49.47;97207.72;4875742;28;20749;-79
2023/08/24 04:28:52;;;;;;;4.80;4.43;;;;;;;24.34;49.79;97211.50;4908449;28;20354;-80
2023/08/24 04:31:17;;;;;;;5.18;4.78;;;;;;;24.30;49.46;97213.28;4857548;28;20403;-80
2023/08/24 04:33:42;;;;;;;4.55;4.25;;;;;;;24.23;50.31;97211.16;4865519;28;20296;-80
2023/08/24 04:36:08;;;;;;;4.78;4.28;;;;;;;24.20;50.21;97213.72;4861866;28;20223;-80
2023/08/24 04:38:33;;;;;;;5.00;4.50;;;;;;;24.12;50.56;97221.44;4886246;28;20204;-80
2023/08/24 04:40:59;;;;;;;5.07;4.68;;;;;;;24.09;51.17;97229.31;4870016;28;20199;-80
2023/08/24 04:43:24;;;;;;;5.38;4.88;;;;;;;24.14;50.98;97236.31;4852323;28;20369;-79
2023/08/24 04:45:52;;;;;;;4.90;4.50;;;;;;;24.17;50.28;97256.94;4871661;28;20195;-79
2023/08/24 04:48:23;;;;;;;4.80;4.40;;;;;;;24.22;50.15;97264.72;4864343;28;20242;-79
2023/08/24 04:50:49;;;;;;;4.93;4.53;;;;;;;24.18;50.11;97280.56;4880196;28;20278;-79
2023/08/24 04:53:18;;;;;;;4.72;4.40;;;;;;;24.18;50.16;97293.06;4873036;28;20260;-79
2023/08/24 04:55:44;;;;;;;5.15;4.38;;;;;;;24.26;50.01;97324.13;4887879;28;20194;-79
2023/08/24 04:58:13;;;;;;;5.70;5.18;;;;;;;24.28;50.04;97344.00;4876338;28;20665;-80
2023/08/24 05:00:39;;;;;;;5.63;5.13;;;;;;;24.09;50.53;97367.66;4876048;28;20640;-80
2023/08/24 05:03:05;;;;;;;5.68;5.20;;;;;;;24.04;50.35;97408.56;4843998;28;20211;-81
2023/08/24 05:05:31;;;;;;;6.13;5.65;;;;;;;23.92;51.54;97413.78;4873765;28;20190;-81
2023/08/24 05:07:57;;;;;;;7.03;5.90;;;;;;;23.91;51.27;97417.56;4876137;28;20211;-81
2023/08/24 05:10:23;;;;;;;5.90;5.40;;;;;;;23.64;51.64;97403.66;4862859;28;20203;-80
2023/08/24 05:12:48;;;;;;;6.53;5.22;;;;;;;23.65;51.70;97407.13;4868355;28;20614;-80
2023/08/24 05:15:14;;;;;;;5.72;5.28;;;;;;;23.58;51.46;97402.31;4902503;28;20722;-80
2023/08/24 05:17:40;;;;;;;5.72;5.20;;;;;;;23.66;51.00;97401.47;4869350;28;20360;-80
2023/08/24 05:20:08;;;;;;;5.97;5.47;;;;;;;23.50;51.78;97417.22;4876192;28;20115;-80
2023/08/24 05:22:33;;;;;;;7.85;5.43;;;;;;;23.49;52.24;97412.22;4854784;28;20716;-80
2023/08/24 05:25:02;;;;;;;6.55;5.90;;;;;;;23.41;51.87;97402.41;4857466;28;20290;-80
2023/08/24 05:27:27;;;;;;;6.30;5.00;;;;;;;23.44;52.10;97415.06;4862640;28;20241;-80
2023/08/24 05:29:52;;;;;;;5.25;4.75;;;;;;;23.40;52.29;97406.97;4854722;28;20293;-79
2023/08/24 05:32:18;;;;;;;5.50;5.00;;;;;;;23.44;52.52;97391.94;4872461;28;20160;-81
2023/08/24 05:34:45;;;;;;;5.80;5.30;;;;;;;23.47;53.03;97366.59;4871901;28;20372;-80
2023/08/24 05:37:10;;;;;;;6.05;5.05;;;;;;;23.29;52.75;97364.06;4856459;28;20292;-80
2023/08/24 05:39:36;;;;;;;8.25;5.38;;;;;;;23.31;53.10;97356.53;4859753;28;20823;-80
2023/08/24 05:42:01;;;;;;;5.35;4.82;;;;;;;23.27;52.88;97350.31;4845631;28;20301;-79
2023/08/24 05:44:27;;;;;;;5.50;5.00;;;;;;;23.33;53.25;97337.63;4850523;28;20235;-79
2023/08/24 05:46:52;;;;;;;5.07;4.57;;;;;;;23.37;53.79;97326.03;4879197;28;20167;-79
2023/08/24 05:49:17;;;;;;;5.75;5.25;;;;;;;23.39;52.80;97325.69;4881468;28;20388;-79
2023/08/24 05:51:43;;;;;;;5.18;4.78;;;;;;;23.36;53.31;97326.34;4887747;28;20303;-79
2023/08/24 05:54:09;;;;;;;5.30;4.63;;;;;;;23.25;53.04;97323.28;4857772;28;20810;-79
2023/08/24 05:56:34;;;;;;;5.63;5.07;;;;;;;23.27;53.07;97314.97;4879671;28;20842;-79
2023/08/24 05:58:59;;;;;;;5.95;4.90;;;;;;;23.28;53.12;97313.91;4875748;28;20639;-79
2023/08/24 06:01:25;;;;;;;5.32;4.82;;;;;;;23.31;53.44;97306.06;4848685;28;20264;-79
2023/08/24 06:03:50;;;;;;;5.20;4.78;;;;;;;23.35;53.83;97296.31;4877593;28;20330;-79
2023/08/24 06:06:16;;;;;;;6.15;5.60;;;;;;;23.40;53.88;97295.34;4848260;28;20208;-79
2023/08/24 06:08:42;;;;;;;5.95;5.43;;;;;;;23.34;53.66;97291.34;4861193;28;20300;-79
2023/08/24 06:11:08;;;;;;;6.13;5.53;;;;;;;23.35;53.13;97292.88;4865627;28;20286;-79
2023/08/24 06:13:33;;;;;;;5.97;5.43;;;;;;;23.39;53.10;97285.84;4868713;28;20286;-79
2023/08/24 06:15:59;;;;;;;6.05;4.95;;;;;;;23.34;52.36;97286.81;4885364;28;20523;-79
2023/08/24 06:18:24;;;;;;;6.57;5.55;;;;;;;23.29;52.41;97284.34;4873330;28;20198;-79
2023/08/24 06:20:50;;;;;;;6.32;5.72;;;;;;;23.31;52.48;97282.13;4864849;28;20168;-78
2023/08/24 06:23:19;;;;;;;6.45;5.75;;;;;;;23.42;52.22;97292.38;4854107;28;20242;-79
2023/08/24 06:25:44;;;;;;;6.95;4.97;;;;;;;23.54;52.94;97284.44;4857360;28;20191;-79
2023/08/24 06:28:13;;;;;;;5.57;5.07;;;;;;;23.63;52.37;97295.00;4881249;28;20219;-79
2023/08/24 06:30:39;;;;;;;5.75;5.20;;;;;;;23.75;52.28;97301.16;4858568;28;20317;-80
2023/08/24 06:33:05;;;;;;;5.45;4.95;;;;;;;23.80;52.60;97308.13;4865943;28;20159;-79
2023/08/24 06:35:31;;;;;;;6.95;5.50;;;;;;;23.76;52.47;97296.59;4857681;28;20342;-79
2023/08/24 06:37:57;;;;;;;5.63;5.10;;;;;;;23.78;53.25;97309.56;4881102;28;20677;-79
2023/08/24 06:40:22;;;;;;;5.90;5.40;;;;;;;23.84;53.09;97303.00;4854344;28;20286;-80
2023/08/24 06:42:48;;;;;;;6.32;5.72;;;;;;;23.87;52.94;97294.34;4864822;28;20634;-79
2023/08/24 06:45:13;;;;;;;6.07;5.47;;;;;;;23.93;52.87;97295.69;4880664;28;20370;-80
2023/08/24 06:47:39;;;;;;;6.75;6.05;;;;;;;23.92;52.14;97284.28;4872855;28;20127;-79
2023/08/24 06:50:06;;;;;;;5.28;4.82;;;;;;;24.14;51.99;97286.88;4851075;28;20206;-80
2023/08/24 06:52:32;;;;;;;5.60;4.82;;;;;;;24.33;51.95;97275.69;4867369;28;20282;-82
2023/08/24 06:54:58;;;;;;;6.57;5.28;;;;;;;24.58;52.04;97281.81;4846327;28;20142;-80
2023/08/24 06:57:23;;;;;;;5.50;4.88;;;;;;;24.78;51.58;97290.78;4877066;28;20251;-80
2023/08/24 06:59:48;;;;;;;6.10;4.43;;;;;;;24.86;50.44;97303.22;4873100;28;20720;-80
2023/08/24 07:02:14;;;;;;;4.70;4.30;;;;;;;24.95;49.95;97305.75;4869913;28;20262;-81
2023/08/24 07:04:40;;;;;;;5.10;4.57;;;;;;;25.07;49.46;97313.75;4849042;28;20278;-81
2023/08/24 07:07:08;;;;;;;5.30;4.82;;;;;;;25.26;49.81;97341.69;4858858;28;20230;-80
2023/08/24 07:09:35;;;;;;;5.07;4.65;;;;;;;25.23;49.82;97337.81;4878699;28;20344;-80
2023/08/24 07:12:01;;;;;;;5.30;4.78;;;;;;;25.08;49.75;97341.94;4888526;28;20188;-80
2023/08/24 07:14:27;;;;;;;5.60;4.90;;;;;;;24.99;49.91;97344.72;4871152;28;20192;-80
2023/08/24 07:16:52;;;;;;;5.32;4.85;;;;;;;24.94;50.77;97333.50;4859645;28;20650;-80
2023/08/24 07:19:18;;;;;;;7.10;5.00;;;;;;;24.99;50.81;97325.28;4891254;28;20645;-80
2023/08/24 07:21:43;;;;;;;8.55;6.20;;;;;;;24.95;50.78;97338.50;4874787;28;20270;-80
2023/08/24 07:24:08;;;;;;;5.85;5.22;;;;;;;25.08;51.18;97344.59;4863485;28;20583;-79
2023/08/24 07:26:34;;;;;;;5.32;4.93;;;;;;;25.19;50.27;97335.03;4893977;28;20754;-79
2023/08/24 07:28:59;;;;;;;5.97;5.35;;;;;;;25.27;50.55;97343.25;4874649;28;20607;-80
2023/08/24 07:31:25;;;;;;;5.60;5.10;;;;;;;25.41;49.81;97325.00;4860608;28;20559;-80
2023/08/24 07:33:50;;;;;;;5.25;4.75;;;;;;;25.51;49.93;97321.84;4858645;28;21339;-81
2023/08/24 07:36:18;;;;;;;6.20;5.10;;;;;;;25.84;49.95;97307.53;4877656;28;20203;-82
2023/08/24 07:38:45;;;;;;;4.95;4.45;;;;;;;26.05;49.04;97311.88;4864876;28;20185;-80
2023/08/24 07:41:11;;;;;;;6.88;5.00;;;;;;;25.96;48.56;97306.69;4867139;28;20096;-80
2023/08/24 07:43:37;;;;;;;5.05;4.65;;;;;;;26.20;48.04;97302.31;4862680;28;20586;-80
2023/08/24 07:46:06;;;;;;;4.88;4.43;;;;;;;26.52;47.96;97287.06;4875127;28;20222;-80
2023/08/24 07:48:31;;;;;;;6.43;4.95;;;;;;;26.63;47.59;97290.00;4874655;28;20096;-80
2023/08/24 07:50:56;;;;;;;5.25;4.75;;;;;;;26.88;46.66;97280.66;4852203;28;20097;-79
2023/08/24 07:53:22;;;;;;;5.30;4.80;;;;;;;26.96;46.07;97273.59;4900296;28;20267;-79
2023/08/24 07:55:47;;;;;;;4.60;4.20;;;;;;;27.28;46.09;97258.22;4859223;28;20030;-79
2023/08/24 07:58:13;;;;;;;5.20;4.70;;;;;;;27.41;45.13;97269.53;4888339;28;20296;-79
2023/08/24 08:00:39;;;;;;;5.88;4.35;;;;;;;27.28;44.79;97262.78;4853672;28;20254;-79
2023/08/24 08:03:04;;;;;;;25.77;7.38;;;;;;;27.38;45.42;97262.22;4865864;28;20285;-77
2023/08/24 08:05:30;;;;;;;6.88;4.53;;;;;;;27.33;44.96;97241.13;4876772;28;20303;-78
2023/08/24 08:07:55;;;;;;;8.20;5.10;;;;;;;27.47;45.02;97248.66;4869890;28;20275;-78
2023/08/24 08:10:21;;;;;;;6.50;4.68;;;;;;;27.38;45.15;97238.16;4872685;28;20654;-78
2023/08/24 08:12:46;;;;;;;4.68;4.28;;;;;;;27.43;45.13;97248.56;4904774;28;20685;-77
2023/08/24 08:15:12;;;;;;;5.97;4.90;;;;;;;27.66;45.65;97255.88;4843210;28;20613;-78
2023/08/24 08:17:37;;;;;;;5.22;4.78;;;;;;;27.87;44.40;97260.06;4859143;28;20297;-79
2023/08/24 08:20:03;;;;;;;4.95;4.57;;;;;;;27.82;44.71;97259.22;4868299;28;20215;-79
2023/08/24 08:22:29;;;;;;;7.13;5.55;;;;;;;28.03;44.59;97250.03;4867853;28;20536;-78
2023/08/24 08:24:56;;;;;;;5.00;4.60;;;;;;;28.20;44.20;97236.16;4857163;28;20200;-79
2023/08/24 08:27:24;;;;;;;5.47;4.68;;;;;;;28.50;44.28;97226.66;4874647;28;20462;-78
2023/08/24 08:29:50;;;;;;;5.10;4.35;;;;;;;28.66;42.79;97213.13;4862574;28;20311;-78
2023/08/24 08:47:18;;;;;;;5.05;4.65;;;;;;;30.56;40.57;97195.41;4901713;28;20252;-78
2023/08/24 08:49:43;;;;;;;4.80;4.35;;;;;;;30.70;40.25;97198.16;4859294;28;20231;-78
2023/08/24 08:52:09;;;;;;;4.75;4.35;;;;;;;30.94;39.14;97196.00;4856664;28;20208;-78
2023/08/24 08:54:34;;;;;;;4.22;3.90;;;;;;;30.94;37.76;97185.25;4850854;28;20283;-78
2023/08/24 08:57:01;;;;;;;4.32;4.03;;;;;;;31.09;38.81;97191.44;4861306;28;20495;-79
2023/08/24 08:59:30;;;;;;;5.22;4.10;;;;;;;31.56;39.15;97186.94;4872230;28;20297;-78
2023/08/24 09:01:56;;;;;;;4.30;3.90;;;;;;;31.72;38.91;97181.19;4857215;28;20161;-78
2023/08/24 09:04:22;;;;;;;4.20;3.90;;;;;;;31.78;37.04;97174.28;4857595;28;20113;-78
2023/08/24 09:06:48;;;;;;;5.10;3.80;;;;;;;31.77;35.89;97171.97;4891343;28;20272;-78
2023/08/24 09:09:14;;;;;;;3.85;3.63;;;;;;;32.02;36.32;97161.19;4874468;28;20663;-78
2023/08/24 09:11:42;;;;;;;4.18;3.88;;;;;;;32.19;36.86;97162.34;4867112;28;20287;-80
2023/08/24 09:14:07;;;;;;;5.45;4.13;;;;;;;32.54;36.35;97145.28;4875558;28;20642;-79
2023/08/24 09:16:33;;;;;;;5.25;3.95;;;;;;;32.48;34.18;97146.88;4848894;28;20179;-77
2023/08/24 09:18:58;;;;;;;4.07;3.78;;;;;;;32.39;35.01;97146.50;4884261;28;20210;-78
2023/08/24 09:21:25;;;;;;;4.18;3.80;;;;;;;32.13;33.47;97142.34;4881294;28;20254;-78
2023/08/24 09:23:55;;;;;;;4.25;3.85;;;;;;;32.16;33.36;97126.16;4865425;28;20211;-78
2023/08/24 09:26:31;;;;;;;4.00;3.78;;;;;;;32.42;32.50;97119.56;4873345;28;20634;-78
2023/08/24 09:28:57;;;;;;;4.57;3.80;;;;;;;32.07;33.50;97118.50;4868937;28;20235;-79
2023/08/24 09:31:24;;;;;;;3.97;3.67;;;;;;;31.99;34.70;97110.78;4875229;28;20409;-78
2023/08/24 09:33:49;;;;;;;3.67;3.47;;;;;;;31.86;33.74;97096.97;4868407;28;20351;-78
2023/08/24 09:36:15;;;;;;;3.90;3.60;;;;;;;31.81;35.19;97095.44;4858002;28;20320;-79
2023/08/24 09:38:51;;;;;;;4.43;4.03;;;;;;;31.95;37.47;97089.25;4856564;28;20367;-78
2023/08/24 09:41:17;;;;;;;4.43;3.97;;;;;;;31.68;34.65;97080.81;4857585;28;20213;-78
2023/08/24 09:43:42;;;;;;;4.22;3.92;;;;;;;31.53;34.17;97082.75;4858356;28;20210;-78
2023/08/24 09:46:08;;;;;;;4.22;3.42;;;;;;;31.50;34.89;97092.38;4874932;28;20687;-78
2023/08/24 09:48:33;;;;;;;3.97;3.67;;;;;;;31.93;35.12;97089.63;4870380;28;20337;-78
2023/08/24 09:51:01;;;;;;;3.90;3.50;;;;;;;32.22;33.85;97086.91;4876243;28;20338;-79
2023/08/24 09:53:28;;;;;;;3.85;3.55;;;;;;;32.53;32.59;97071.00;4842601;28;20382;-78
2023/08/24 09:56:01;;;;;;;4.25;3.85;;;;;;;32.98;33.76;97073.84;4867931;28;20204;-78
2023/08/24 09:58:27;;;;;;;3.72;3.42;;;;;;;32.81;31.52;97069.34;4871302;28;20215;-78
2023/08/24 10:00:53;;;;;;;3.47;3.28;;;;;;;32.79;32.51;97068.97;4855998;28;20789;-78
2023/08/24 10:03:20;;;;;;;3.67;3.47;;;;;;;32.72;32.85;97075.16;4839885;28;20185;-78
2023/08/24 10:06:03;;;;;;;4.07;3.55;;;;;;;33.09;33.57;97070.31;4849521;28;20291;-78
2023/08/24 10:08:41;;;;;;;4.18;3.88;;;;;;;33.36;34.59;97068.56;4855306;28;20184;-79
2023/08/24 10:11:08;;;;;;;4.88;3.10;;;;;;;33.39;33.54;97062.38;4871256;28;20247;-78
2023/08/24 10:13:40;;;;;;;6.13;4.53;;;;;;;33.61;33.67;97056.81;4868578;28;20263;-77
2023/08/24 10:16:07;;;;;;;4.63;3.72;;;;;;;33.59;32.18;97059.16;4871259;28;20224;-79
2023/08/24 10:18:33;;;;;;;3.58;3.35;;;;;;;33.25;32.15;97057.13;4863858;28;20179;-78
2023/08/24 10:20:59;;;;;;;3.90;3.60;;;;;;;33.49;32.52;97058.06;4858062;28;20210;-78
2023/08/24 10:23:27;;;;;;;3.67;3.38;;;;;;;33.58;31.64;97036.78;4856614;28;20287;-77
2023/08/24 10:25:53;;;;;;;3.55;3.25;;;;;;;33.88;32.90;97042.66;4855760;28;20646;-78
2023/08/24 10:28:20;;;;;;;4.18;3.33;;;;;;;33.94;32.71;97031.03;4872828;28;20105;-77
2023/08/24 10:30:46;;;;;;;4.45;3.42;;;;;;;34.11;31.82;97018.47;4869050;28;20597;-78
2023/08/24 10:33:12;;;;;;;3.45;3.15;;;;;;;33.94;29.10;97016.75;4863566;28;20255;-78
2023/08/24 10:35:39;;;;;;;3.90;3.55;;;;;;;34.35;31.91;97020.56;4874672;28;20184;-78
2023/08/24 10:38:05;;;;;;;3.78;3.47;;;;;;;34.39;30.89;97026.69;4873275;28;20160;-78
2023/08/24 10:40:43;;;;;;;3.50;3.20;;;;;;;34.65;31.58;97038.66;4871596;28;20203;-78
2023/08/24 10:43:09;;;;;;;3.83;3.53;;;;;;;34.91;28.28;97044.53;4870851;28;20274;-79
2023/08/24 10:45:54;;;;;;;4.00;3.38;;;;;;;35.41;30.00;97054.59;4869671;28;20263;-78
2023/08/24 10:48:19;;;;;;;4.07;3.40;;;;;;;35.45;29.63;97058.00;4877554;28;20746;-78
2023/08/24 10:51:13;;;;;;;3.90;3.60;;;;;;;35.41;29.25;97051.88;4855928;28;20282;-78
2023/08/24 10:53:46;;;;;;;3.67;3.37;;;;;;;35.22;29.88;97039.84;4873486;28;20203;-78
2023/08/24 10:56:12;;;;;;;4.05;3.75;;;;;;;34.88;28.88;97040.72;4866536;28;20537;-77
2023/08/24 10:58:38;;;;;;;4.03;3.72;;;;;;;34.49;27.52;97040.03;4863986;28;20329;-78
2023/08/24 11:01:03;;;;;;;3.97;3.63;;;;;;;34.43;28.39;97033.56;4871714;28;20641;-77
2023/08/24 11:03:33;;;;;;;4.13;3.83;;;;;;;34.49;32.17;97031.16;4854782;28;20164;-78
2023/08/24 11:05:58;;;;;;;3.92;3.63;;;;;;;34.68;31.15;97016.97;4844231;28;20186;-78
2023/08/24 11:08:44;;;;;;;4.32;4.00;;;;;;;34.61;29.10;97027.91;4856406;28;20195;-78
2023/08/24 11:11:24;;;;;;;4.55;4.15;;;;;;;34.36;31.17;97027.47;4863472;28;20172;-78
2023/08/24 11:14:17;;;;;;;4.63;4.18;;;;;;;34.39;32.45;97013.91;4859284;28;20275;-78
2023/08/24 11:16:44;;;;;;;4.60;3.70;;;;;;;34.33;31.67;97012.84;4862405;28;20221;-78
2023/08/24 11:19:12;;;;;;;4.55;4.15;;;;;;;34.22;32.35;97001.41;4869553;28;20391;-78
2023/08/24 11:21:38;;;;;;;5.35;4.95;;;;;;;34.20;32.67;96995.63;4882163;28;20100;-79
2023/08/24 11:24:04;;;;;;;4.80;4.38;;;;;;;34.22;33.72;96998.69;4860297;28;20192;-78
2023/08/24 11:26:30;;;;;;;4.85;4.25;;;;;;;34.16;35.72;96982.16;4851991;28;20206;-78
2023/08/24 11:28:57;;;;;;;5.15;4.75;;;;;;;34.28;35.30;96978.94;4872978;28;20285;-78
2023/08/24 11:31:23;;;;;;;5.35;4.85;;;;;;;34.21;33.96;96978.28;4852724;28;20687;-78
2023/08/24 11:33:55;;;;;;;4.90;4.57;;;;;;;34.37;34.72;96967.59;4871439;28;20247;-79
2023/08/24 11:36:20;;;;;;;5.05;4.60;;;;;;;34.23;35.84;96970.50;4880158;28;20444;-79
2023/08/24 11:38:47;;;;;;;5.30;4.90;;;;;;;34.16;36.19;96963.22;4880758;28;20767;-79
2023/08/24 11:41:16;;;;;;;5.40;5.00;;;;;;;34.00;34.55;96965.75;4855474;28;20612;-79
2023/08/24 11:43:45;;;;;;;4.70;4.30;;;;;;;34.09;35.30;96971.44;4850209;28;20227;-80
2023/08/24 11:46:12;;;;;;;5.28;4.88;;;;;;;34.04;37.03;96978.03;4858121;28;20804;-79